createdAt,value
2022-11-09T06:15:55.715Z,1000.28
2022-11-09T06:25:55.830Z,1000.37
2022-11-09T06:35:56.674Z,1000.51
2022-11-09T06:45:55.834Z,1000.45
2022-11-09T06:55:55.752Z,1000.48
2022-11-09T07:05:55.732Z,1000.48
2022-11-09T07:15:55.951Z,1000.63
2022-11-09T07:25:56.024Z,1000.66
2022-11-09T07:35:56.282Z,1000.60
2022-11-09T07:45:56.292Z,1000.67
2022-11-09T07:55:56.353Z,1000.74
2022-11-09T08:05:56.782Z,1000.90
2022-11-09T08:15:56.865Z,1000.89
2022-11-09T08:25:56.951Z,1001.02
2022-11-09T08:35:57.001Z,1001.07
2022-11-09T08:45:57.284Z,1001.14
2022-11-09T08:55:57.169Z,1001.15
2022-11-09T09:05:57.145Z,1001.19
2022-11-09T09:15:57.149Z,1001.28
2022-11-09T09:25:58.711Z,1001.22
2022-11-09T09:35:57.239Z,1001.51
2022-11-09T09:45:58.121Z,1001.50
2022-11-09T09:55:57.076Z,1001.61
2022-11-09T10:05:57.318Z,1001.69
2022-11-09T10:15:57.210Z,1001.65
2022-11-09T10:26:04.609Z,1001.60
2022-11-09T10:35:57.325Z,1001.48
2022-11-09T10:45:57.289Z,1001.46
2022-11-09T10:55:57.042Z,1001.45
2022-11-09T11:05:57.142Z,1001.46
2022-11-09T11:15:57.369Z,1001.43
2022-11-09T11:25:57.161Z,1001.49
2022-11-09T11:35:57.313Z,1001.42
2022-11-09T11:45:57.260Z,1001.36
2022-11-09T11:55:57.321Z,1001.43
2022-11-09T12:05:57.284Z,1001.34
2022-11-09T12:15:57.342Z,1001.40
2022-11-09T12:25:57.192Z,1001.39
2022-11-09T12:35:57.198Z,1001.36
2022-11-09T12:45:57.259Z,1001.43
2022-11-09T12:55:57.231Z,1001.45
2022-11-09T13:06:02.250Z,1001.36
2022-11-09T13:15:57.259Z,1001.28
2022-11-09T13:25:57.405Z,1001.20
2022-11-09T13:35:57.379Z,1001.19
2022-11-09T13:45:57.233Z,1001.16
2022-11-09T13:55:57.380Z,1001.37
2022-11-09T14:05:57.415Z,1001.40
2022-11-09T14:15:57.155Z,1001.43
2022-11-09T14:25:57.291Z,1001.39
2022-11-09T14:35:57.223Z,1001.45
2022-11-09T14:45:57.427Z,1001.61
2022-11-09T14:55:57.328Z,1001.74
2022-11-09T15:05:57.312Z,1001.88
2022-11-09T15:15:57.373Z,1002.05
2022-11-09T15:25:57.531Z,1001.90
2022-11-09T15:35:57.446Z,1001.98
2022-11-09T15:45:57.553Z,1002.07
2022-11-09T15:55:57.300Z,1002.15
2022-11-09T16:05:57.435Z,1002.44
2022-11-09T16:15:57.349Z,1002.50
2022-11-09T16:25:57.451Z,1002.64
2022-11-09T16:35:57.272Z,1002.63
2022-11-09T16:45:57.349Z,1002.64
2022-11-09T16:55:57.569Z,1002.70
2022-11-09T17:05:57.369Z,1002.87
2022-11-09T17:15:57.452Z,1002.89
2022-11-09T17:25:57.459Z,1003.06
2022-11-09T17:35:57.535Z,1003.21
2022-11-09T17:45:57.420Z,1003.25
2022-11-09T17:55:57.337Z,1003.45
2022-11-09T18:05:57.514Z,1003.51
2022-11-09T18:15:57.549Z,1003.74
2022-11-09T18:25:57.542Z,1003.89
2022-11-09T18:35:57.441Z,1003.95
2022-11-09T18:45:57.514Z,1003.99
2022-11-09T18:55:57.642Z,1004.07
2022-11-09T19:05:57.452Z,1004.26
2022-11-09T19:15:58.457Z,1004.30
